sensor_id;sensor_type;location;lat;lon;timestamp;P1;durP1;ratioP1;P2;durP2;ratioP2
74707;SDS011;63360;50.104;8.074;2023-11-19T00:02:26;5.70;;;2.30;;
74707;SDS011;63360;50.104;8.074;2023-11-19T00:04:53;4.63;;;2.22;;
74707;SDS011;63360;50.104;8.074;2023-11-19T00:07:19;4.57;;;2.40;;
74707;SDS011;63360;50.104;8.074;2023-11-19T00:09:47;4.75;;;2.55;;
74707;SDS011;63360;50.104;8.074;2023-11-19T00:12:13;5.03;;;2.28;;
74707;SDS011;63360;50.104;8.074;2023-11-19T00:14:39;4.03;;;2.07;;
74707;SDS011;63360;50.104;8.074;2023-11-19T00:17:07;6.30;;;2.70;;
74707;SDS011;63360;50.104;8.074;2023-11-19T00:19:33;5.63;;;2.60;;
74707;SDS011;63360;50.104;8.074;2023-11-19T00:21:59;4.85;;;2.45;;
74707;SDS011;63360;50.104;8.074;2023-11-19T00:24:29;4.10;;;2.20;;
74707;SDS011;63360;50.104;8.074;2023-11-19T00:26:56;4.47;;;2.10;;
74707;SDS011;63360;50.104;8.074;2023-11-19T00:29:22;4.07;;;2.13;;
74707;SDS011;63360;50.104;8.074;2023-11-19T00:31:49;4.20;;;2.17;;
74707;SDS011;63360;50.104;8.074;2023-11-19T00:34:16;4.15;;;2.00;;
74707;SDS011;63360;50.104;8.074;2023-11-19T00:36:42;4.35;;;2.03;;
74707;SDS011;63360;50.104;8.074;2023-11-19T00:39:10;4.33;;;2.00;;
74707;SDS011;63360;50.104;8.074;2023-11-19T00:41:37;4.28;;;2.10;;
74707;SDS011;63360;50.104;8.074;2023-11-19T00:44:03;4.30;;;1.83;;
74707;SDS011;63360;50.104;8.074;2023-11-19T00:46:30;4.32;;;1.95;;
74707;SDS011;63360;50.104;8.074;2023-11-19T00:48:57;3.65;;;1.70;;
74707;SDS011;63360;50.104;8.074;2023-11-19T00:51:25;4.23;;;1.90;;
74707;SDS011;63360;50.104;8.074;2023-11-19T00:53:52;4.03;;;1.90;;
74707;SDS011;63360;50.104;8.074;2023-11-19T00:56:21;4.85;;;2.08;;
74707;SDS011;63360;50.104;8.074;2023-11-19T00:58:48;3.65;;;1.80;;
74707;SDS011;63360;50.104;8.074;2023-11-19T01:01:14;5.07;;;1.90;;
74707;SDS011;63360;50.104;8.074;2023-11-19T01:03:40;3.33;;;1.50;;
74707;SDS011;63360;50.104;8.074;2023-11-19T01:06:07;3.53;;;1.40;;
74707;SDS011;63360;50.104;8.074;2023-11-19T01:08:34;3.70;;;1.67;;
74707;SDS011;63360;50.104;8.074;2023-11-19T01:11:01;3.17;;;1.40;;
74707;SDS011;63360;50.104;8.074;2023-11-19T01:13:28;3.50;;;1.70;;
74707;SDS011;63360;50.104;8.074;2023-11-19T01:15:55;3.60;;;1.57;;
74707;SDS011;63360;50.104;8.074;2023-11-19T01:18:22;4.35;;;1.60;;
74707;SDS011;63360;50.104;8.074;2023-11-19T01:20:49;3.65;;;1.58;;
74707;SDS011;63360;50.104;8.074;2023-11-19T01:23:15;3.83;;;1.73;;
74707;SDS011;63360;50.104;8.074;2023-11-19T01:25:41;4.13;;;1.45;;
74707;SDS011;63360;50.104;8.074;2023-11-19T01:28:08;3.07;;;1.37;;
74707;SDS011;63360;50.104;8.074;2023-11-19T01:30:34;3.85;;;1.55;;
74707;SDS011;63360;50.104;8.074;2023-11-19T01:33:01;6.53;;;1.85;;
74707;SDS011;63360;50.104;8.074;2023-11-19T01:35:27;13.38;;;2.20;;
74707;SDS011;63360;50.104;8.074;2023-11-19T01:37:53;35.10;;;3.17;;
74707;SDS011;63360;50.104;8.074;2023-11-19T01:40:20;5.87;;;1.70;;
74707;SDS011;63360;50.104;8.074;2023-11-19T01:42:47;3.88;;;1.48;;
74707;SDS011;63360;50.104;8.074;2023-11-19T01:45:21;45.35;;;2.80;;
74707;SDS011;63360;50.104;8.074;2023-11-19T01:47:52;54.35;;;3.10;;
74707;SDS011;63360;50.104;8.074;2023-11-19T01:50:19;20.98;;;2.40;;
74707;SDS011;63360;50.104;8.074;2023-11-19T01:52:46;30.60;;;3.00;;
74707;SDS011;63360;50.104;8.074;2023-11-19T01:55:12;16.00;;;1.95;;
74707;SDS011;63360;50.104;8.074;2023-11-19T01:57:39;36.92;;;2.45;;
74707;SDS011;63360;50.104;8.074;2023-11-19T02:00:07;29.38;;;2.83;;
74707;SDS011;63360;50.104;8.074;2023-11-19T02:02:39;11.00;;;2.08;;
74707;SDS011;63360;50.104;8.074;2023-11-19T02:05:07;15.47;;;2.07;;
74707;SDS011;63360;50.104;8.074;2023-11-19T02:07:33;11.15;;;1.50;;
74707;SDS011;63360;50.104;8.074;2023-11-19T02:10:00;12.20;;;1.90;;
74707;SDS011;63360;50.104;8.074;2023-11-19T02:12:28;25.48;;;2.45;;
74707;SDS011;63360;50.104;8.074;2023-11-19T02:14:55;7.05;;;1.77;;
74707;SDS011;63360;50.104;8.074;2023-11-19T02:17:28;6.17;;;1.80;;
74707;SDS011;63360;50.104;8.074;2023-11-19T02:19:57;4.32;;;1.75;;
74707;SDS011;63360;50.104;8.074;2023-11-19T02:22:24;4.85;;;1.85;;
74707;SDS011;63360;50.104;8.074;2023-11-19T02:24:51;4.30;;;1.90;;
74707;SDS011;63360;50.104;8.074;2023-11-19T02:27:26;4.55;;;1.70;;
74707;SDS011;63360;50.104;8.074;2023-11-19T02:29:59;4.20;;;1.60;;
74707;SDS011;63360;50.104;8.074;2023-11-19T02:32:27;3.90;;;1.67;;
74707;SDS011;63360;50.104;8.074;2023-11-19T02:34:54;4.18;;;1.77;;
74707;SDS011;63360;50.104;8.074;2023-11-19T02:37:32;4.47;;;1.80;;
74707;SDS011;63360;50.104;8.074;2023-11-19T02:39:58;4.78;;;1.60;;
74707;SDS011;63360;50.104;8.074;2023-11-19T02:42:35;4.93;;;1.73;;
74707;SDS011;63360;50.104;8.074;2023-11-19T02:45:02;12.68;;;1.92;;
74707;SDS011;63360;50.104;8.074;2023-11-19T02:47:33;9.13;;;2.00;;
74707;SDS011;63360;50.104;8.074;2023-11-19T02:50:00;6.65;;;1.92;;
74707;SDS011;63360;50.104;8.074;2023-11-19T02:52:26;22.80;;;2.20;;
74707;SDS011;63360;50.104;8.074;2023-11-19T02:54:53;54.70;;;3.27;;
74707;SDS011;63360;50.104;8.074;2023-11-19T02:57:19;94.15;;;3.10;;
74707;SDS011;63360;50.104;8.074;2023-11-19T02:59:48;79.55;;;3.58;;
74707;SDS011;63360;50.104;8.074;2023-11-19T03:02:14;28.88;;;2.13;;
74707;SDS011;63360;50.104;8.074;2023-11-19T03:04:42;71.97;;;4.00;;
74707;SDS011;63360;50.104;8.074;2023-11-19T03:07:09;10.60;;;1.53;;
74707;SDS011;63360;50.104;8.074;2023-11-19T03:09:36;6.32;;;1.73;;
74707;SDS011;63360;50.104;8.074;2023-11-19T03:12:02;3.55;;;1.60;;
74707;SDS011;63360;50.104;8.074;2023-11-19T03:14:32;3.60;;;1.52;;
74707;SDS011;63360;50.104;8.074;2023-11-19T03:17:00;3.72;;;1.45;;
74707;SDS011;63360;50.104;8.074;2023-11-19T03:19:27;4.07;;;1.70;;
74707;SDS011;63360;50.104;8.074;2023-11-19T03:21:53;3.55;;;1.40;;
74707;SDS011;63360;50.104;8.074;2023-11-19T03:24:20;4.07;;;1.30;;
74707;SDS011;63360;50.104;8.074;2023-11-19T03:26:50;3.00;;;1.30;;
74707;SDS011;63360;50.104;8.074;2023-11-19T03:29:16;3.30;;;1.30;;
74707;SDS011;63360;50.104;8.074;2023-11-19T03:31:43;2.80;;;1.10;;
74707;SDS011;63360;50.104;8.074;2023-11-19T03:34:10;3.08;;;1.10;;
74707;SDS011;63360;50.104;8.074;2023-11-19T03:36:37;3.45;;;1.33;;
74707;SDS011;63360;50.104;8.074;2023-11-19T03:39:03;3.30;;;1.35;;
74707;SDS011;63360;50.104;8.074;2023-11-19T03:41:29;3.60;;;1.58;;
74707;SDS011;63360;50.104;8.074;2023-11-19T03:44:07;3.33;;;1.30;;
74707;SDS011;63360;50.104;8.074;2023-11-19T03:46:33;3.13;;;1.25;;
74707;SDS011;63360;50.104;8.074;2023-11-19T03:49:01;3.38;;;1.40;;
74707;SDS011;63360;50.104;8.074;2023-11-19T03:51:28;3.70;;;1.35;;
74707;SDS011;63360;50.104;8.074;2023-11-19T03:53:54;4.20;;;1.40;;
74707;SDS011;63360;50.104;8.074;2023-11-19T03:56:21;3.33;;;1.20;;
74707;SDS011;63360;50.104;8.074;2023-11-19T03:58:47;3.30;;;1.30;;
74707;SDS011;63360;50.104;8.074;2023-11-19T04:01:13;4.30;;;1.50;;
74707;SDS011;63360;50.104;8.074;2023-11-19T04:03:40;3.35;;;1.40;;
74707;SDS011;63360;50.104;8.074;2023-11-19T04:06:16;4.15;;;1.70;;
74707;SDS011;63360;50.104;8.074;2023-11-19T04:08:43;13.20;;;1.63;;
74707;SDS011;63360;50.104;8.074;2023-11-19T04:11:10;7.55;;;1.80;;
74707;SDS011;63360;50.104;8.074;2023-11-19T04:13:36;4.85;;;1.65;;
74707;SDS011;63360;50.104;8.074;2023-11-19T04:16:03;6.28;;;1.50;;
74707;SDS011;63360;50.104;8.074;2023-11-19T04:18:30;4.20;;;1.30;;
74707;SDS011;63360;50.104;8.074;2023-11-19T04:20:58;3.23;;;1.20;;
74707;SDS011;63360;50.104;8.074;2023-11-19T04:23:24;3.50;;;1.20;;
74707;SDS011;63360;50.104;8.074;2023-11-19T04:25:51;6.32;;;1.30;;
74707;SDS011;63360;50.104;8.074;2023-11-19T04:28:17;4.00;;;1.50;;
74707;SDS011;63360;50.104;8.074;2023-11-19T04:30:44;2.72;;;1.05;;
74707;SDS011;63360;50.104;8.074;2023-11-19T04:33:10;3.70;;;1.43;;
74707;SDS011;63360;50.104;8.074;2023-11-19T04:35:36;4.00;;;1.20;;
74707;SDS011;63360;50.104;8.074;2023-11-19T04:38:03;3.60;;;1.27;;
74707;SDS011;63360;50.104;8.074;2023-11-19T04:40:29;4.32;;;1.23;;
74707;SDS011;63360;50.104;8.074;2023-11-19T04:42:56;5.00;;;2.33;;
74707;SDS011;63360;50.104;8.074;2023-11-19T04:45:22;2.60;;;1.00;;
74707;SDS011;63360;50.104;8.074;2023-11-19T04:47:48;1.60;;;0.70;;
74707;SDS011;63360;50.104;8.074;2023-11-19T04:50:15;1.77;;;0.70;;
74707;SDS011;63360;50.104;8.074;2023-11-19T04:52:41;2.42;;;0.70;;
74707;SDS011;63360;50.104;8.074;2023-11-19T04:55:12;1.20;;;0.50;;
74707;SDS011;63360;50.104;8.074;2023-11-19T04:57:38;1.40;;;0.50;;
74707;SDS011;63360;50.104;8.074;2023-11-19T05:00:05;1.27;;;0.40;;
74707;SDS011;63360;50.104;8.074;2023-11-19T05:02:42;1.75;;;0.30;;
74707;SDS011;63360;50.104;8.074;2023-11-19T05:05:09;0.98;;;0.40;;
74707;SDS011;63360;50.104;8.074;2023-11-19T05:07:36;1.60;;;0.40;;
74707;SDS011;63360;50.104;8.074;2023-11-19T05:10:02;1.73;;;0.50;;
74707;SDS011;63360;50.104;8.074;2023-11-19T05:12:30;1.92;;;0.40;;
74707;SDS011;63360;50.104;8.074;2023-11-19T05:14:57;2.13;;;0.40;;
74707;SDS011;63360;50.104;8.074;2023-11-19T05:17:23;1.80;;;0.70;;
74707;SDS011;63360;50.104;8.074;2023-11-19T05:19:50;1.77;;;0.50;;
74707;SDS011;63360;50.104;8.074;2023-11-19T05:22:16;1.30;;;0.50;;
74707;SDS011;63360;50.104;8.074;2023-11-19T05:24:43;1.10;;;0.30;;
74707;SDS011;63360;50.104;8.074;2023-11-19T05:27:10;2.50;;;0.40;;
74707;SDS011;63360;50.104;8.074;2023-11-19T05:29:37;1.23;;;0.40;;
74707;SDS011;63360;50.104;8.074;2023-11-19T05:32:05;1.83;;;0.40;;
74707;SDS011;63360;50.104;8.074;2023-11-19T05:34:31;4.87;;;0.40;;
74707;SDS011;63360;50.104;8.074;2023-11-19T05:36:58;1.38;;;0.40;;
74707;SDS011;63360;50.104;8.074;2023-11-19T05:39:24;2.95;;;0.50;;
74707;SDS011;63360;50.104;8.074;2023-11-19T05:41:51;1.55;;;0.30;;
74707;SDS011;63360;50.104;8.074;2023-11-19T05:44:17;1.23;;;0.50;;
74707;SDS011;63360;50.104;8.074;2023-11-19T05:46:44;1.40;;;0.50;;
74707;SDS011;63360;50.104;8.074;2023-11-19T05:49:11;1.48;;;0.50;;
74707;SDS011;63360;50.104;8.074;2023-11-19T05:51:39;2.80;;;0.55;;
74707;SDS011;63360;50.104;8.074;2023-11-19T05:54:06;1.90;;;0.60;;
74707;SDS011;63360;50.104;8.074;2023-11-19T05:56:34;1.42;;;0.60;;
74707;SDS011;63360;50.104;8.074;2023-11-19T05:59:01;1.30;;;0.60;;
74707;SDS011;63360;50.104;8.074;2023-11-19T06:01:29;2.67;;;0.70;;
74707;SDS011;63360;50.104;8.074;2023-11-19T06:03:56;1.83;;;0.70;;
74707;SDS011;63360;50.104;8.074;2023-11-19T06:06:22;3.33;;;0.50;;
74707;SDS011;63360;50.104;8.074;2023-11-19T06:08:48;1.50;;;0.70;;
74707;SDS011;63360;50.104;8.074;2023-11-19T06:11:16;1.40;;;0.50;;
74707;SDS011;63360;50.104;8.074;2023-11-19T06:13:46;3.40;;;0.70;;
74707;SDS011;63360;50.104;8.074;2023-11-19T06:16:14;1.80;;;0.60;;
74707;SDS011;63360;50.104;8.074;2023-11-19T06:18:40;3.15;;;0.60;;
74707;SDS011;63360;50.104;8.074;2023-11-19T06:21:07;3.97;;;0.73;;
74707;SDS011;63360;50.104;8.074;2023-11-19T06:23:34;2.73;;;0.67;;
74707;SDS011;63360;50.104;8.074;2023-11-19T06:26:00;4.80;;;0.70;;
74707;SDS011;63360;50.104;8.074;2023-11-19T06:28:27;3.97;;;0.90;;
74707;SDS011;63360;50.104;8.074;2023-11-19T06:30:53;6.10;;;1.10;;
74707;SDS011;63360;50.104;8.074;2023-11-19T06:33:20;2.28;;;0.70;;
74707;SDS011;63360;50.104;8.074;2023-11-19T06:35:46;5.40;;;1.07;;
74707;SDS011;63360;50.104;8.074;2023-11-19T06:38:13;4.28;;;1.10;;
74707;SDS011;63360;50.104;8.074;2023-11-19T06:40:39;4.85;;;1.02;;
74707;SDS011;63360;50.104;8.074;2023-11-19T06:43:07;6.28;;;1.33;;
74707;SDS011;63360;50.104;8.074;2023-11-19T06:45:35;6.68;;;1.20;;
74707;SDS011;63360;50.104;8.074;2023-11-19T06:48:03;4.37;;;1.27;;
74707;SDS011;63360;50.104;8.074;2023-11-19T06:50:31;7.35;;;1.23;;
74707;SDS011;63360;50.104;8.074;2023-11-19T06:52:58;5.05;;;1.00;;
74707;SDS011;63360;50.104;8.074;2023-11-19T06:55:25;5.75;;;1.20;;
74707;SDS011;63360;50.104;8.074;2023-11-19T06:57:52;6.15;;;1.10;;
74707;SDS011;63360;50.104;8.074;2023-11-19T07:00:19;7.27;;;1.33;;
74707;SDS011;63360;50.104;8.074;2023-11-19T07:02:46;5.15;;;1.17;;
74707;SDS011;63360;50.104;8.074;2023-11-19T07:05:12;5.07;;;1.40;;
74707;SDS011;63360;50.104;8.074;2023-11-19T07:07:39;7.82;;;1.85;;
74707;SDS011;63360;50.104;8.074;2023-11-19T07:10:06;8.55;;;2.08;;
74707;SDS011;63360;50.104;8.074;2023-11-19T07:12:35;8.67;;;2.60;;
74707;SDS011;63360;50.104;8.074;2023-11-19T07:15:02;12.10;;;2.05;;
74707;SDS011;63360;50.104;8.074;2023-11-19T07:17:30;4.90;;;1.58;;
74707;SDS011;63360;50.104;8.074;2023-11-19T07:19:56;6.53;;;1.42;;
74707;SDS011;63360;50.104;8.074;2023-11-19T07:22:25;4.57;;;1.50;;
74707;SDS011;63360;50.104;8.074;2023-11-19T07:24:52;6.43;;;1.10;;
74707;SDS011;63360;50.104;8.074;2023-11-19T07:27:19;8.48;;;1.25;;
74707;SDS011;63360;50.104;8.074;2023-11-19T07:29:45;2.92;;;1.10;;
74707;SDS011;63360;50.104;8.074;2023-11-19T07:32:12;9.40;;;2.08;;
74707;SDS011;63360;50.104;8.074;2023-11-19T07:34:39;7.97;;;1.60;;
74707;SDS011;63360;50.104;8.074;2023-11-19T07:37:06;4.77;;;1.40;;
74707;SDS011;63360;50.104;8.074;2023-11-19T07:39:33;6.38;;;1.70;;
74707;SDS011;63360;50.104;8.074;2023-11-19T07:42:01;5.45;;;1.52;;
74707;SDS011;63360;50.104;8.074;2023-11-19T07:44:27;6.57;;;1.70;;
74707;SDS011;63360;50.104;8.074;2023-11-19T07:46:54;6.53;;;1.80;;
74707;SDS011;63360;50.104;8.074;2023-11-19T07:49:20;5.63;;;1.60;;
74707;SDS011;63360;50.104;8.074;2023-11-19T07:51:46;6.05;;;1.48;;
74707;SDS011;63360;50.104;8.074;2023-11-19T07:54:13;5.57;;;1.17;;
74707;SDS011;63360;50.104;8.074;2023-11-19T07:56:40;7.38;;;1.63;;
74707;SDS011;63360;50.104;8.074;2023-11-19T07:59:06;6.63;;;1.20;;
74707;SDS011;63360;50.104;8.074;2023-11-19T08:01:32;8.27;;;1.83;;
74707;SDS011;63360;50.104;8.074;2023-11-19T08:03:59;8.40;;;1.55;;
74707;SDS011;63360;50.104;8.074;2023-11-19T08:06:26;5.15;;;1.15;;
74707;SDS011;63360;50.104;8.074;2023-11-19T08:08:52;6.47;;;1.33;;
74707;SDS011;63360;50.104;8.074;2023-11-19T08:11:19;5.05;;;1.38;;
74707;SDS011;63360;50.104;8.074;2023-11-19T08:13:48;4.00;;;1.40;;
74707;SDS011;63360;50.104;8.074;2023-11-19T08:16:15;4.07;;;1.40;;
74707;SDS011;63360;50.104;8.074;2023-11-19T08:18:44;6.40;;;1.70;;
74707;SDS011;63360;50.104;8.074;2023-11-19T08:21:11;6.57;;;1.52;;
74707;SDS011;63360;50.104;8.074;2023-11-19T08:23:37;4.75;;;1.20;;
74707;SDS011;63360;50.104;8.074;2023-11-19T08:26:04;7.67;;;1.43;;
74707;SDS011;63360;50.104;8.074;2023-11-19T08:28:31;3.72;;;1.40;;
74707;SDS011;63360;50.104;8.074;2023-11-19T08:31:00;4.18;;;1.20;;
74707;SDS011;63360;50.104;8.074;2023-11-19T08:33:27;8.70;;;1.50;;
74707;SDS011;63360;50.104;8.074;2023-11-19T08:35:54;6.28;;;1.83;;
74707;SDS011;63360;50.104;8.074;2023-11-19T08:38:21;5.10;;;1.50;;
74707;SDS011;63360;50.104;8.074;2023-11-19T08:40:50;4.07;;;1.20;;
74707;SDS011;63360;50.104;8.074;2023-11-19T08:43:18;6.63;;;1.40;;
74707;SDS011;63360;50.104;8.074;2023-11-19T08:45:44;4.47;;;1.17;;
74707;SDS011;63360;50.104;8.074;2023-11-19T08:48:11;18.30;;;9.52;;
74707;SDS011;63360;50.104;8.074;2023-11-19T08:50:37;6.80;;;1.70;;
74707;SDS011;63360;50.104;8.074;2023-11-19T08:53:03;6.20;;;1.38;;
74707;SDS011;63360;50.104;8.074;2023-11-19T08:55:33;8.20;;;3.35;;
74707;SDS011;63360;50.104;8.074;2023-11-19T08:57:59;8.88;;;2.15;;
74707;SDS011;63360;50.104;8.074;2023-11-19T09:00:25;6.03;;;1.40;;
74707;SDS011;63360;50.104;8.074;2023-11-19T09:02:52;7.63;;;2.87;;
74707;SDS011;63360;50.104;8.074;2023-11-19T09:05:19;11.15;;;4.20;;
74707;SDS011;63360;50.104;8.074;2023-11-19T09:07:45;6.03;;;2.17;;
74707;SDS011;63360;50.104;8.074;2023-11-19T09:10:12;7.60;;;2.10;;
74707;SDS011;63360;50.104;8.074;2023-11-19T09:12:38;5.63;;;1.80;;
74707;SDS011;63360;50.104;8.074;2023-11-19T09:15:05;4.63;;;1.10;;
74707;SDS011;63360;50.104;8.074;2023-11-19T09:17:32;5.72;;;1.40;;
74707;SDS011;63360;50.104;8.074;2023-11-19T09:19:59;6.03;;;1.38;;
74707;SDS011;63360;50.104;8.074;2023-11-19T09:22:25;7.45;;;1.38;;
74707;SDS011;63360;50.104;8.074;2023-11-19T09:24:51;5.05;;;0.90;;
74707;SDS011;63360;50.104;8.074;2023-11-19T09:27:18;8.03;;;1.20;;
74707;SDS011;63360;50.104;8.074;2023-11-19T09:29:44;5.28;;;1.10;;
74707;SDS011;63360;50.104;8.074;2023-11-19T09:32:12;8.63;;;1.35;;
74707;SDS011;63360;50.104;8.074;2023-11-19T09:34:39;6.05;;;1.10;;
74707;SDS011;63360;50.104;8.074;2023-11-19T09:37:05;6.10;;;1.35;;
74707;SDS011;63360;50.104;8.074;2023-11-19T09:39:47;8.13;;;0.90;;
74707;SDS011;63360;50.104;8.074;2023-11-19T09:42:13;7.60;;;0.93;;
74707;SDS011;63360;50.104;8.074;2023-11-19T09:44:40;4.90;;;1.08;;
74707;SDS011;63360;50.104;8.074;2023-11-19T09:47:08;6.38;;;1.17;;
74707;SDS011;63360;50.104;8.074;2023-11-19T09:49:37;8.68;;;2.15;;
74707;SDS011;63360;50.104;8.074;2023-11-19T09:52:04;8.60;;;2.27;;
74707;SDS011;63360;50.104;8.074;2023-11-19T09:54:30;8.98;;;1.30;;
74707;SDS011;63360;50.104;8.074;2023-11-19T09:56:57;9.00;;;1.70;;
74707;SDS011;63360;50.104;8.074;2023-11-19T09:59:29;6.45;;;1.67;;
74707;SDS011;63360;50.104;8.074;2023-11-19T10:01:57;10.32;;;1.70;;
74707;SDS011;63360;50.104;8.074;2023-11-19T10:04:23;11.60;;;1.90;;
74707;SDS011;63360;50.104;8.074;2023-11-19T10:06:51;6.25;;;2.80;;
74707;SDS011;63360;50.104;8.074;2023-11-19T10:09:18;9.48;;;1.52;;
74707;SDS011;63360;50.104;8.074;2023-11-19T10:11:45;5.90;;;1.40;;
74707;SDS011;63360;50.104;8.074;2023-11-19T10:14:11;6.65;;;1.10;;
74707;SDS011;63360;50.104;8.074;2023-11-19T10:16:39;4.27;;;1.03;;
74707;SDS011;63360;50.104;8.074;2023-11-19T10:19:06;5.18;;;0.98;;
74707;SDS011;63360;50.104;8.074;2023-11-19T10:21:33;5.20;;;0.80;;
74707;SDS011;63360;50.104;8.074;2023-11-19T10:24:00;9.23;;;1.25;;
74707;SDS011;63360;50.104;8.074;2023-11-19T10:26:27;6.03;;;1.20;;
74707;SDS011;63360;50.104;8.074;2023-11-19T10:28:55;6.53;;;1.23;;
74707;SDS011;63360;50.104;8.074;2023-11-19T10:31:21;5.22;;;0.82;;
74707;SDS011;63360;50.104;8.074;2023-11-19T10:33:51;9.77;;;0.95;;
74707;SDS011;63360;50.104;8.074;2023-11-19T10:36:18;9.68;;;1.42;;
74707;SDS011;63360;50.104;8.074;2023-11-19T10:38:52;7.15;;;1.13;;
74707;SDS011;63360;50.104;8.074;2023-11-19T10:41:29;9.93;;;1.20;;
74707;SDS011;63360;50.104;8.074;2023-11-19T10:44:00;6.35;;;1.00;;
74707;SDS011;63360;50.104;8.074;2023-11-19T10:46:36;6.15;;;1.20;;
74707;SDS011;63360;50.104;8.074;2023-11-19T10:49:07;7.07;;;0.98;;
74707;SDS011;63360;50.104;8.074;2023-11-19T10:51:34;8.05;;;1.05;;
74707;SDS011;63360;50.104;8.074;2023-11-19T10:54:04;6.93;;;1.13;;
74707;SDS011;63360;50.104;8.074;2023-11-19T10:56:33;9.05;;;1.10;;
74707;SDS011;63360;50.104;8.074;2023-11-19T10:59:00;9.20;;;1.10;;
74707;SDS011;63360;50.104;8.074;2023-11-19T11:01:27;6.90;;;1.05;;
74707;SDS011;63360;50.104;8.074;2023-11-19T11:04:01;10.40;;;1.25;;
74707;SDS011;63360;50.104;8.074;2023-11-19T11:06:28;8.07;;;1.10;;
74707;SDS011;63360;50.104;8.074;2023-11-19T11:08:56;11.30;;;1.17;;
74707;SDS011;63360;50.104;8.074;2023-11-19T11:11:22;10.00;;;1.30;;
74707;SDS011;63360;50.104;8.074;2023-11-19T11:13:52;7.40;;;1.40;;
74707;SDS011;63360;50.104;8.074;2023-11-19T11:16:20;11.13;;;1.58;;
74707;SDS011;63360;50.104;8.074;2023-11-19T11:18:48;6.47;;;1.47;;
74707;SDS011;63360;50.104;8.074;2023-11-19T11:21:17;10.60;;;1.65;;
74707;SDS011;63360;50.104;8.074;2023-11-19T11:24:07;11.63;;;1.17;;
74707;SDS011;63360;50.104;8.074;2023-11-19T11:29:31;8.98;;;0.80;;
74707;SDS011;63360;50.104;8.074;2023-11-19T11:37:44;6.47;;;1.10;;
74707;SDS011;63360;50.104;8.074;2023-11-19T11:40:17;6.95;;;1.17;;
74707;SDS011;63360;50.104;8.074;2023-11-19T11:42:44;6.68;;;0.80;;
74707;SDS011;63360;50.104;8.074;2023-11-19T11:45:14;11.50;;;1.20;;
74707;SDS011;63360;50.104;8.074;2023-11-19T11:50:09;9.25;;;1.25;;
74707;SDS011;63360;50.104;8.074;2023-11-19T11:58:03;8.33;;;1.07;;
74707;SDS011;63360;50.104;8.074;2023-11-19T12:00:40;6.72;;;1.15;;
74707;SDS011;63360;50.104;8.074;2023-11-19T12:03:08;8.95;;;1.10;;
74707;SDS011;63360;50.104;8.074;2023-11-19T12:05:41;7.78;;;0.93;;
74707;SDS011;63360;50.104;8.074;2023-11-19T12:08:13;9.43;;;1.27;;
74707;SDS011;63360;50.104;8.074;2023-11-19T12:10:45;5.40;;;1.00;;
74707;SDS011;63360;50.104;8.074;2023-11-19T12:13:14;5.05;;;1.00;;
74707;SDS011;63360;50.104;8.074;2023-11-19T12:18:26;6.90;;;0.93;;
74707;SDS011;63360;50.104;8.074;2023-11-19T12:20:54;8.55;;;0.88;;
74707;SDS011;63360;50.104;8.074;2023-11-19T12:23:24;5.83;;;0.80;;
74707;SDS011;63360;50.104;8.074;2023-11-19T12:25:51;9.55;;;1.50;;
74707;SDS011;63360;50.104;8.074;2023-11-19T12:28:17;5.78;;;0.73;;
74707;SDS011;63360;50.104;8.074;2023-11-19T12:30:45;6.63;;;0.80;;
74707;SDS011;63360;50.104;8.074;2023-11-19T12:33:15;5.78;;;0.77;;
74707;SDS011;63360;50.104;8.074;2023-11-19T12:35:42;5.13;;;0.80;;
74707;SDS011;63360;50.104;8.074;2023-11-19T12:41:08;7.20;;;0.90;;
74707;SDS011;63360;50.104;8.074;2023-11-19T12:43:39;4.80;;;0.82;;
74707;SDS011;63360;50.104;8.074;2023-11-19T12:46:21;6.75;;;1.45;;
74707;SDS011;63360;50.104;8.074;2023-11-19T12:48:49;5.07;;;0.80;;
74707;SDS011;63360;50.104;8.074;2023-11-19T12:51:17;9.07;;;0.90;;
74707;SDS011;63360;50.104;8.074;2023-11-19T12:53:47;8.15;;;1.20;;
74707;SDS011;63360;50.104;8.074;2023-11-19T12:56:14;10.70;;;0.93;;
74707;SDS011;63360;50.104;8.074;2023-11-19T12:58:41;11.35;;;0.70;;
74707;SDS011;63360;50.104;8.074;2023-11-19T13:01:09;6.07;;;0.80;;
74707;SDS011;63360;50.104;8.074;2023-11-19T13:03:38;7.68;;;0.93;;
74707;SDS011;63360;50.104;8.074;2023-11-19T13:06:06;5.40;;;0.60;;
74707;SDS011;63360;50.104;8.074;2023-11-19T13:11:11;6.60;;;0.70;;
74707;SDS011;63360;50.104;8.074;2023-11-19T13:16:30;6.47;;;0.50;;
74707;SDS011;63360;50.104;8.074;2023-11-19T13:18:57;3.95;;;0.70;;
74707;SDS011;63360;50.104;8.074;2023-11-19T13:21:25;7.85;;;1.02;;
74707;SDS011;63360;50.104;8.074;2023-11-19T13:23:51;6.13;;;0.90;;
74707;SDS011;63360;50.104;8.074;2023-11-19T13:26:17;6.07;;;1.00;;
74707;SDS011;63360;50.104;8.074;2023-11-19T13:28:44;6.15;;;1.08;;
74707;SDS011;63360;50.104;8.074;2023-11-19T13:31:10;8.70;;;1.23;;
74707;SDS011;63360;50.104;8.074;2023-11-19T13:33:37;11.35;;;1.90;;
74707;SDS011;63360;50.104;8.074;2023-11-19T13:36:04;7.40;;;1.35;;
74707;SDS011;63360;50.104;8.074;2023-11-19T13:38:34;10.37;;;1.30;;
74707;SDS011;63360;50.104;8.074;2023-11-19T13:41:04;5.30;;;0.98;;
74707;SDS011;63360;50.104;8.074;2023-11-19T13:43:31;7.18;;;0.80;;
74707;SDS011;63360;50.104;8.074;2023-11-19T13:45:57;7.45;;;1.05;;
74707;SDS011;63360;50.104;8.074;2023-11-19T13:48:24;10.17;;;0.83;;
74707;SDS011;63360;50.104;8.074;2023-11-19T13:50:50;4.63;;;0.50;;
74707;SDS011;63360;50.104;8.074;2023-11-19T13:53:17;7.03;;;0.98;;
74707;SDS011;63360;50.104;8.074;2023-11-19T13:55:43;9.05;;;0.90;;
74707;SDS011;63360;50.104;8.074;2023-11-19T13:58:10;6.18;;;0.88;;
74707;SDS011;63360;50.104;8.074;2023-11-19T14:00:37;5.97;;;1.00;;
74707;SDS011;63360;50.104;8.074;2023-11-19T14:03:04;10.97;;;1.07;;
74707;SDS011;63360;50.104;8.074;2023-11-19T14:05:30;4.82;;;0.77;;
74707;SDS011;63360;50.104;8.074;2023-11-19T14:08:00;6.03;;;0.90;;
74707;SDS011;63360;50.104;8.074;2023-11-19T14:10:29;7.72;;;0.90;;
74707;SDS011;63360;50.104;8.074;2023-11-19T14:12:55;9.70;;;0.70;;
74707;SDS011;63360;50.104;8.074;2023-11-19T14:15:21;11.23;;;1.30;;
74707;SDS011;63360;50.104;8.074;2023-11-19T14:17:48;4.30;;;0.80;;
74707;SDS011;63360;50.104;8.074;2023-11-19T14:20:14;12.40;;;1.45;;
74707;SDS011;63360;50.104;8.074;2023-11-19T14:22:42;8.88;;;1.02;;
74707;SDS011;63360;50.104;8.074;2023-11-19T14:25:09;6.65;;;1.10;;
74707;SDS011;63360;50.104;8.074;2023-11-19T14:27:37;10.60;;;1.20;;
74707;SDS011;63360;50.104;8.074;2023-11-19T14:30:07;6.88;;;1.00;;
74707;SDS011;63360;50.104;8.074;2023-11-19T14:32:35;7.57;;;1.23;;
74707;SDS011;63360;50.104;8.074;2023-11-19T14:35:03;6.25;;;1.05;;
74707;SDS011;63360;50.104;8.074;2023-11-19T14:37:30;5.07;;;0.60;;
74707;SDS011;63360;50.104;8.074;2023-11-19T14:39:57;10.23;;;1.03;;
74707;SDS011;63360;50.104;8.074;2023-11-19T14:42:26;6.93;;;1.00;;
74707;SDS011;63360;50.104;8.074;2023-11-19T14:44:53;8.23;;;1.30;;
74707;SDS011;63360;50.104;8.074;2023-11-19T14:47:20;8.55;;;1.40;;
74707;SDS011;63360;50.104;8.074;2023-11-19T14:49:46;8.43;;;1.70;;
74707;SDS011;63360;50.104;8.074;2023-11-19T14:52:13;6.83;;;1.10;;
74707;SDS011;63360;50.104;8.074;2023-11-19T14:54:43;9.63;;;1.17;;
74707;SDS011;63360;50.104;8.074;2023-11-19T14:57:10;8.30;;;0.95;;
74707;SDS011;63360;50.104;8.074;2023-11-19T14:59:37;9.18;;;0.90;;
74707;SDS011;63360;50.104;8.074;2023-11-19T15:02:03;7.40;;;0.80;;
74707;SDS011;63360;50.104;8.074;2023-11-19T15:04:31;8.70;;;1.00;;
74707;SDS011;63360;50.104;8.074;2023-11-19T15:06:58;10.45;;;0.90;;
74707;SDS011;63360;50.104;8.074;2023-11-19T15:09:25;6.95;;;0.90;;
74707;SDS011;63360;50.104;8.074;2023-11-19T15:11:55;11.02;;;1.40;;
74707;SDS011;63360;50.104;8.074;2023-11-19T15:14:21;7.53;;;1.25;;
74707;SDS011;63360;50.104;8.074;2023-11-19T15:16:48;6.90;;;1.17;;